DOC95 ENLU-ENTO
Flight info
| Callsign | DOC95 |
|---|---|
| Flight time | N/A |
| Altitude | 3000 |
| Route | ULMUG ULMUG2S/18 |
| Aircraft | EC45/L-V/C |
Departure
| Time | 2026-05-05 19:25 |
|---|---|
| Airport | Lunde Nome Airfield (ENLU) |
Arrival
| Time | N/A |
|---|---|
| Airport | Sandefjord Airport, Torp (ENTO) |
| Time | Latitude | Longitude | Altitude | Speed | Heading |
|---|---|---|---|---|---|
| 2026-05-05 19:23 | 59.16311 | 9.88919 | 1718 ft | 115 kts | 309° |
| 2026-05-05 19:23 | 59.16822 | 9.87737 | 1813 ft | 116 kts | 297° |
| 2026-05-05 19:23 | 59.17007 | 9.86156 | 1807 ft | 124 kts | 274° |
| 2026-05-05 19:24 | 59.16994 | 9.84484 | 1854 ft | 124 kts | 269° |
| 2026-05-05 19:24 | 59.17091 | 9.82927 | 2105 ft | 112 kts | 282° |
| 2026-05-05 19:24 | 59.17175 | 9.81347 | 2130 ft | 121 kts | 270° |
| 2026-05-05 19:24 | 59.17240 | 9.79674 | 2143 ft | 124 kts | 279° |
| 2026-05-05 19:25 | 59.17457 | 9.78104 | 2312 ft | 118 kts | 288° |
| 2026-05-05 19:25 | 59.17663 | 9.76628 | 2214 ft | 114 kts | 272° |
| 2026-05-05 19:25 | 59.17671 | 9.75129 | 2187 ft | 112 kts | 265° |
| 2026-05-05 19:25 | 59.17533 | 9.73631 | 2143 ft | 112 kts | 252° |
| 2026-05-05 19:26 | 59.17347 | 9.72103 | 2017 ft | 117 kts | 260° |
| 2026-05-05 19:26 | 59.17491 | 9.70610 | 2063 ft | 111 kts | 289° |
| 2026-05-05 19:26 | 59.17816 | 9.69240 | 2079 ft | 110 kts | 295° |
| 2026-05-05 19:26 | 59.18223 | 9.68028 | 2144 ft | 105 kts | 298° |
| 2026-05-05 19:27 | 59.18589 | 9.66757 | 2002 ft | 109 kts | 293° |
| 2026-05-05 19:27 | 59.19078 | 9.65419 | 1876 ft | 131 kts | 306° |
| 2026-05-05 19:27 | 59.19664 | 9.63983 | 1771 ft | 134 kts | 306° |
| 2026-05-05 19:27 | 59.20183 | 9.62525 | 1753 ft | 131 kts | 297° |
| 2026-05-05 19:28 | 59.20601 | 9.60923 | 1385 ft | 134 kts | 291° |
| 2026-05-05 19:28 | 59.20924 | 9.59443 | 1353 ft | 102 kts | 283° |
| 2026-05-05 19:28 | 59.21007 | 9.58606 | 1350 ft | 83 kts | 268° |
| 2026-05-05 19:28 | 59.20741 | 9.57499 | 1093 ft | 63 kts | 199° |
| 2026-05-05 19:29 | 59.20329 | 9.57273 | 830 ft | 62 kts | 171° |
| 2026-05-05 19:29 | 59.19927 | 9.57166 | 724 ft | 55 kts | 171° |
| 2026-05-05 19:29 | 59.19675 | 9.57082 | 669 ft | 52 kts | 169° |
| 2026-05-05 19:29 | 59.19341 | 9.56967 | 588 ft | 43 kts | 166° |
| 2026-05-05 19:30 | 59.19091 | 9.56886 | 537 ft | 30 kts | 153° |
| 2026-05-05 19:30 | 59.18936 | 9.56837 | 513 ft | 17 kts | 150° |
| 2026-05-05 19:30 | 59.18854 | 9.56816 | 483 ft | 7 kts | 166° |
| 2026-05-05 19:30 | 59.18818 | 9.56815 | 464 ft | 4 kts | 91° |
| 2026-05-05 19:31 | 59.18814 | 9.56822 | 455 ft | 2 kts | 113° |
| 2026-05-05 19:31 | 59.18811 | 9.56817 | 464 ft | 6 kts | 187° |
| 2026-05-05 19:31 | 59.18484 | 9.56713 | 496 ft | 78 kts | 188° |
| 2026-05-05 19:32 | 59.17960 | 9.56847 | 795 ft | 85 kts | 142° |
| 2026-05-05 19:32 | 59.17726 | 9.57897 | 1083 ft | 84 kts | 98° |
| 2026-05-05 19:32 | 59.17981 | 9.58922 | 1148 ft | 94 kts | 37° |
| 2026-05-05 19:32 | 59.18608 | 9.59512 | 1104 ft | 105 kts | 11° |
| 2026-05-05 19:33 | 59.19316 | 9.59738 | 1146 ft | 101 kts | 8° |
| 2026-05-05 19:33 | 59.20003 | 9.59899 | 1141 ft | 99 kts | 0° |
| 2026-05-05 19:33 | 59.20645 | 9.59565 | 1059 ft | 94 kts | 329° |
| 2026-05-05 19:33 | 59.21044 | 9.58500 | 836 ft | 101 kts | 285° |
| 2026-05-05 19:34 | 59.20895 | 9.57254 | 828 ft | 88 kts | 224° |
| 2026-05-05 19:34 | 59.20337 | 9.57141 | 681 ft | 83 kts | 180° |
| 2026-05-05 19:34 | 59.19797 | 9.57089 | 599 ft | 75 kts | 193° |
| 2026-05-05 19:35 | 59.18837 | 9.56821 | 468 ft | 54 kts | 200° |
| 2026-05-05 19:35 | 59.18609 | 9.56734 | 446 ft | 0 kts | 230° |
| 2026-05-05 19:35 | 59.18603 | 9.56734 | 451 ft | 4 kts | 192° |
| 2026-05-05 19:36 | 59.18513 | 9.56722 | 457 ft | 31 kts | 192° |
| 2026-05-05 19:36 | 59.18244 | 9.56650 | 450 ft | 42 kts | 198° |
| 2026-05-05 19:36 | 59.18053 | 9.56587 | 439 ft | 0 kts | 191° |
| 2026-05-05 19:36 | 59.18044 | 9.56590 | 447 ft | 4 kts | 192° |
| 2026-05-05 19:37 | 59.18191 | 9.56638 | 451 ft | 53 kts | 9° |
| 2026-05-05 19:37 | 59.18611 | 9.56775 | 594 ft | 63 kts | 9° |
| 2026-05-05 19:37 | 59.18991 | 9.56535 | 818 ft | 62 kts | 310° |
| 2026-05-05 19:37 | 59.19078 | 9.55550 | 860 ft | 82 kts | 279° |
| 2026-05-05 19:38 | 59.19208 | 9.54460 | 923 ft | 80 kts | 292° |
| 2026-05-05 19:38 | 59.19522 | 9.53763 | 862 ft | 66 kts | 324° |
| 2026-05-05 19:38 | 59.19869 | 9.53405 | 750 ft | 45 kts | 340° |
| 2026-05-05 19:38 | 59.20127 | 9.53351 | 553 ft | 35 kts | 9° |
| 2026-05-05 19:39 | 59.20315 | 9.53644 | 438 ft | 38 kts | 76° |
| 2026-05-05 19:39 | 59.20310 | 9.54397 | 416 ft | 68 kts | 81° |
| 2026-05-05 19:39 | 59.20598 | 9.55026 | 449 ft | 61 kts | 12° |
| 2026-05-05 19:39 | 59.20931 | 9.54965 | 508 ft | 36 kts | 307° |
| 2026-05-05 19:40 | 59.21034 | 9.54774 | 570 ft | 9 kts | 295° |
| 2026-05-05 19:40 | 59.21085 | 9.54713 | 578 ft | 8 kts | 288° |
| 2026-05-05 19:40 | 59.21117 | 9.54637 | 582 ft | 5 kts | 277° |
| 2026-05-05 19:40 | 59.21127 | 9.54592 | 574 ft | 1 kts | 281° |
| 2026-05-05 19:41 | 59.21128 | 9.54574 | 566 ft | 1 kts | 276° |
| 2026-05-05 19:41 | 59.21129 | 9.54567 | 534 ft | 1 kts | 277° |
| 2026-05-05 19:41 | 59.21130 | 9.54565 | 518 ft | 1 kts | 280° |
| 2026-05-05 19:41 | 59.21128 | 9.54562 | 519 ft | 0 kts | 280° |
| 2026-05-05 19:42 | 59.21128 | 9.54561 | 510 ft | 0 kts | 276° |
| 2026-05-05 19:42 | 59.21128 | 9.54570 | 523 ft | 1 kts | 300° |
| 2026-05-05 19:42 | 59.21135 | 9.54561 | 518 ft | 1 kts | 333° |
| 2026-05-05 19:43 | 59.21136 | 9.54560 | 514 ft | 0 kts | 334° |
| 2026-05-05 19:43 | 59.21137 | 9.54559 | 514 ft | 0 kts | 330° |
| 2026-05-05 19:43 | 59.21138 | 9.54561 | 518 ft | 1 kts | 331° |
| 2026-05-05 19:44 | 59.21170 | 9.54532 | 653 ft | 19 kts | 336° |
| 2026-05-05 19:44 | 59.21444 | 9.54163 | 891 ft | 67 kts | 298° |
| 2026-05-05 19:44 | 59.21067 | 9.53542 | 1024 ft | 99 kts | 169° |
| 2026-05-05 19:44 | 59.20556 | 9.54728 | 463 ft | 136 kts | 108° |
| 2026-05-05 19:45 | 59.20272 | 9.56227 | 324 ft | 86 kts | 109° |
| 2026-05-05 19:45 | 59.20119 | 9.57107 | 215 ft | 57 kts | 99° |
| 2026-05-05 19:45 | 59.20003 | 9.57668 | 200 ft | 31 kts | 130° |
| 2026-05-05 19:45 | 59.19900 | 9.57882 | 186 ft | 15 kts | 128° |
| 2026-05-05 19:46 | 59.19848 | 9.57994 | 167 ft | 6 kts | 128° |
| 2026-05-05 19:46 | 59.19837 | 9.58050 | 157 ft | 4 kts | 136° |
| 2026-05-05 19:46 | 59.19827 | 9.58075 | 135 ft | 1 kts | 140° |
| 2026-05-05 19:46 | 59.19828 | 9.58082 | 114 ft | 1 kts | 146° |
| 2026-05-05 19:47 | 59.19828 | 9.58078 | 107 ft | 0 kts | 141° |